createdAt,value
2022-12-25T00:01:09.687Z,4.40
2022-12-25T00:02:12.504Z,4.38
2022-12-25T00:03:15.521Z,4.29
2022-12-25T00:04:18.505Z,4.27
2022-12-25T00:05:21.504Z,4.20
2022-12-25T00:06:24.510Z,4.20
2022-12-25T00:07:27.505Z,4.19
2022-12-25T00:08:30.627Z,4.14
2022-12-25T00:09:33.756Z,4.16
2022-12-25T00:10:44.595Z,4.25
2022-12-25T00:11:48.272Z,4.27
2022-12-25T00:12:52.605Z,4.31
2022-12-25T00:13:55.712Z,4.24
2022-12-25T00:14:58.836Z,4.22
2022-12-25T00:16:09.182Z,4.31
2022-12-25T00:17:12.447Z,4.29
2022-12-25T00:18:15.521Z,4.31
2022-12-25T00:19:18.642Z,4.37
2022-12-25T00:20:21.777Z,4.35
2022-12-25T00:21:25.491Z,4.35
2022-12-25T00:22:28.612Z,4.24
2022-12-25T00:23:32.573Z,4.20
2022-12-25T00:24:35.810Z,4.17
2022-12-25T00:25:42.537Z,4.21
2022-12-25T00:26:45.667Z,4.13
2022-12-25T00:27:48.776Z,4.13
2022-12-25T00:28:56.111Z,4.19
2022-12-25T00:29:59.483Z,4.18
2022-12-25T00:31:14.483Z,4.32
2022-12-25T00:32:17.823Z,4.22
2022-12-25T00:33:21.198Z,4.25
2022-12-25T00:34:24.306Z,4.31
2022-12-25T00:35:27.550Z,4.15
2022-12-25T00:36:33.633Z,4.32
2022-12-25T00:37:39.432Z,4.36
2022-12-25T00:38:43.636Z,4.49
2022-12-25T00:39:49.521Z,4.43
2022-12-25T00:40:53.121Z,4.42
2022-12-25T00:42:14.481Z,4.40
2022-12-25T00:43:17.723Z,4.42
2022-12-25T00:44:20.723Z,4.39
2022-12-25T00:45:23.662Z,4.35
2022-12-25T00:46:27.278Z,4.39
2022-12-25T00:47:30.090Z,4.35
2022-12-25T00:48:34.188Z,4.34
2022-12-25T00:49:36.818Z,4.26
2022-12-25T00:50:39.476Z,4.19
2022-12-25T00:51:42.165Z,4.08
2022-12-25T00:52:44.744Z,4.01
2022-12-25T00:53:47.323Z,4.06
2022-12-25T00:54:49.953Z,4.10
2022-12-25T00:56:19.188Z,4.06
2022-12-25T00:57:21.878Z,3.98
2022-12-25T00:58:26.388Z,3.99
2022-12-25T00:59:32.627Z,3.96
2022-12-25T01:00:35.316Z,3.92
2022-12-25T01:01:38.854Z,3.89
2022-12-25T01:02:41.864Z,3.84
2022-12-25T01:03:44.559Z,3.79
2022-12-25T01:04:47.200Z,3.81
2022-12-25T01:05:58.562Z,3.92
2022-12-25T01:07:01.118Z,3.92
2022-12-25T01:08:03.999Z,3.96
2022-12-25T01:09:25.602Z,3.89
2022-12-25T01:10:28.118Z,3.98
2022-12-25T01:11:31.960Z,3.93
2022-12-25T01:12:37.000Z,3.95
2022-12-25T01:13:39.613Z,3.89
2022-12-25T01:14:42.164Z,3.87
2022-12-25T01:15:44.775Z,3.96
2022-12-25T01:16:47.430Z,3.99
2022-12-25T01:17:49.969Z,4.05
2022-12-25T01:18:52.863Z,4.08
2022-12-25T01:19:55.477Z,4.08
2022-12-25T01:20:58.114Z,4.03
2022-12-25T01:22:00.650Z,4.02
2022-12-25T01:23:03.293Z,4.00
2022-12-25T01:24:07.014Z,3.99
2022-12-25T01:25:10.758Z,4.04
2022-12-25T01:26:14.815Z,4.11
2022-12-25T01:27:17.587Z,4.08
2022-12-25T01:28:20.092Z,4.11
2022-12-25T01:29:22.618Z,4.14
2022-12-25T01:30:25.260Z,4.07
2022-12-25T01:31:27.845Z,4.05
2022-12-25T01:32:30.413Z,4.06
2022-12-25T01:33:32.961Z,4.09
2022-12-25T01:34:35.571Z,4.12
2022-12-25T01:35:40.030Z,4.19
2022-12-25T01:36:42.661Z,4.21
2022-12-25T01:37:45.310Z,4.26
2022-12-25T01:38:48.419Z,4.26
2022-12-25T01:39:51.428Z,4.29
2022-12-25T01:40:53.938Z,4.30
2022-12-25T01:41:57.056Z,4.26
2022-12-25T01:42:59.580Z,4.20
2022-12-25T01:44:07.539Z,4.15
2022-12-25T01:45:28.106Z,4.31
2022-12-25T01:46:31.751Z,4.23
2022-12-25T01:47:34.265Z,4.16
2022-12-25T01:48:39.447Z,4.27
2022-12-25T01:49:46.749Z,4.28
2022-12-25T01:50:55.751Z,4.26
2022-12-25T01:52:25.293Z,4.20
2022-12-25T01:53:28.276Z,4.20
2022-12-25T01:54:35.252Z,4.24
2022-12-25T01:55:38.970Z,4.19
2022-12-25T01:56:43.299Z,4.29
2022-12-25T01:57:46.524Z,4.31
2022-12-25T01:58:49.168Z,4.27
2022-12-25T01:59:52.285Z,4.22
2022-12-25T02:00:55.080Z,4.15
2022-12-25T02:01:58.457Z,4.15
2022-12-25T02:03:01.480Z,4.26
2022-12-25T02:04:14.745Z,4.26
2022-12-25T02:05:27.015Z,4.24
2022-12-25T02:06:30.824Z,4.26
2022-12-25T02:07:35.985Z,4.23
2022-12-25T02:08:38.869Z,4.24
2022-12-25T02:09:42.466Z,4.16
2022-12-25T02:10:46.063Z,4.15
2022-12-25T02:11:57.832Z,4.05
2022-12-25T02:13:02.629Z,4.12
2022-12-25T02:14:05.749Z,4.12
2022-12-25T02:15:14.756Z,4.24
2022-12-25T02:16:22.610Z,4.32
2022-12-25T02:17:41.153Z,4.40
2022-12-25T02:18:51.608Z,4.32
2022-12-25T02:20:35.643Z,4.34
2022-12-25T02:21:38.898Z,4.24
2022-12-25T02:23:03.966Z,4.34
2022-12-25T02:24:14.045Z,4.45
2022-12-25T02:26:09.375Z,4.47
2022-12-25T02:27:21.730Z,4.44
2022-12-25T02:29:01.819Z,4.52
2022-12-25T02:30:10.705Z,4.58
2022-12-25T02:31:42.923Z,4.60
2022-12-25T02:33:14.421Z,4.66
2022-12-25T02:34:22.344Z,4.55
2022-12-25T02:35:31.388Z,4.46
2022-12-25T02:36:46.472Z,4.45
2022-12-25T02:38:17.431Z,4.58
2022-12-25T02:39:44.910Z,4.47
2022-12-25T02:40:56.679Z,4.45
2022-12-25T02:42:05.450Z,4.43
2022-12-25T02:43:35.210Z,4.48
2022-12-25T02:45:02.441Z,4.44
2022-12-25T02:46:28.906Z,4.34
2022-12-25T02:47:52.128Z,4.37
2022-12-25T02:49:18.178Z,4.25
2022-12-25T02:50:41.597Z,4.38
2022-12-25T02:52:07.973Z,4.42
2022-12-25T02:53:30.551Z,4.38
2022-12-25T02:54:56.996Z,4.39
2022-12-25T02:56:18.901Z,4.35
2022-12-25T02:57:45.281Z,4.28
2022-12-25T02:59:07.627Z,4.20
2022-12-25T03:00:29.396Z,4.13
2022-12-25T03:01:53.807Z,4.23
2022-12-25T03:03:18.151Z,4.20
2022-12-25T03:04:43.516Z,4.20
2022-12-25T03:06:05.968Z,4.20
2022-12-25T03:07:13.316Z,4.22
2022-12-25T03:08:21.080Z,4.35
2022-12-25T03:09:46.574Z,4.49
2022-12-25T03:11:15.359Z,4.47
2022-12-25T03:12:40.924Z,4.39
2022-12-25T03:13:49.825Z,4.47
2022-12-25T03:15:11.257Z,4.47
2022-12-25T03:16:32.424Z,4.57
2022-12-25T03:17:35.859Z,4.66
2022-12-25T03:18:38.741Z,4.75
2022-12-25T03:20:00.218Z,4.82
2022-12-25T03:21:21.248Z,4.90
2022-12-25T03:22:45.612Z,5.00
2022-12-25T03:24:11.171Z,5.02
2022-12-25T03:25:33.977Z,5.06
2022-12-25T03:26:55.189Z,5.05
2022-12-25T03:27:59.320Z,5.16
2022-12-25T03:29:02.058Z,5.20
2022-12-25T03:30:23.660Z,5.18
2022-12-25T03:31:35.916Z,5.21
2022-12-25T03:32:58.917Z,5.21
2022-12-25T03:34:28.706Z,5.18
2022-12-25T03:36:04.700Z,5.16
2022-12-25T03:37:43.464Z,5.09
2022-12-25T03:39:23.081Z,5.04
2022-12-25T03:41:22.944Z,5.12
2022-12-25T03:42:56.782Z,5.21
2022-12-25T03:44:52.226Z,5.25
2022-12-25T03:46:19.426Z,5.32
2022-12-25T03:47:37.236Z,5.31
2022-12-25T03:49:04.108Z,5.34
2022-12-25T03:50:37.725Z,5.27
2022-12-25T03:52:01.590Z,5.27
2022-12-25T03:53:29.682Z,5.31
2022-12-25T03:54:54.517Z,5.31
2022-12-25T03:56:16.370Z,5.30
2022-12-25T03:57:37.726Z,5.33
2022-12-25T03:59:09.651Z,5.42
2022-12-25T04:00:31.486Z,5.39
2022-12-25T04:01:52.992Z,5.38
2022-12-25T04:03:14.011Z,5.46
2022-12-25T04:04:34.871Z,5.56
2022-12-25T04:05:56.095Z,5.53
2022-12-25T04:07:17.343Z,5.49
2022-12-25T04:08:38.829Z,5.49
2022-12-25T04:10:00.076Z,5.50
2022-12-25T04:11:21.303Z,5.50
2022-12-25T04:12:42.787Z,5.46
2022-12-25T04:14:04.322Z,5.49
2022-12-25T04:15:26.159Z,5.48
2022-12-25T04:16:47.600Z,5.53
2022-12-25T04:18:11.712Z,5.59
2022-12-25T04:19:33.326Z,5.60
2022-12-25T04:20:54.682Z,5.64
2022-12-25T04:22:16.042Z,5.62
2022-12-25T04:23:37.646Z,5.61
2022-12-25T04:24:59.486Z,5.70
2022-12-25T04:26:21.121Z,5.74
2022-12-25T04:27:42.570Z,5.80
2022-12-25T04:29:04.176Z,5.83
2022-12-25T04:30:26.400Z,5.88
2022-12-25T04:31:48.228Z,5.87
2022-12-25T04:33:10.060Z,5.93
2022-12-25T04:34:31.784Z,5.93
2022-12-25T04:35:53.623Z,5.93
2022-12-25T04:36:56.872Z,5.95
2022-12-25T04:37:59.987Z,5.93
2022-12-25T04:39:03.114Z,5.89
2022-12-25T04:40:07.317Z,5.99
2022-12-25T04:41:12.723Z,6.01
2022-12-25T04:42:17.157Z,5.99
2022-12-25T04:43:20.516Z,6.00
2022-12-25T04:44:24.005Z,5.96
2022-12-25T04:45:27.244Z,5.93
2022-12-25T04:46:30.615Z,6.01
2022-12-25T04:47:35.407Z,6.00
2022-12-25T04:48:38.648Z,6.03
2022-12-25T04:49:42.137Z,6.06
2022-12-25T04:50:45.246Z,6.04
2022-12-25T04:51:48.135Z,6.03
2022-12-25T04:52:51.371Z,6.12
2022-12-25T04:53:54.495Z,6.18
2022-12-25T04:54:57.383Z,6.11
2022-12-25T04:56:03.259Z,6.18
2022-12-25T04:57:06.022Z,6.16
2022-12-25T04:58:08.902Z,6.22
2022-12-25T04:59:11.596Z,6.25
2022-12-25T05:00:14.360Z,6.19
2022-12-25T05:01:17.553Z,6.25
2022-12-25T05:02:20.325Z,6.29
2022-12-25T05:03:23.618Z,6.34
2022-12-25T05:04:26.313Z,6.33
2022-12-25T05:05:29.242Z,6.32
2022-12-25T05:06:31.844Z,6.33
2022-12-25T05:07:34.406Z,6.37
2022-12-25T05:08:37.265Z,6.41
2022-12-25T05:09:42.810Z,6.40
2022-12-25T05:10:45.322Z,6.46
2022-12-25T05:11:47.966Z,6.48
2022-12-25T05:12:50.693Z,6.44
2022-12-25T05:13:53.565Z,6.50
2022-12-25T05:14:56.126Z,6.51
2022-12-25T05:15:58.799Z,6.53
2022-12-25T05:17:01.495Z,6.54
2022-12-25T05:18:04.288Z,6.55
2022-12-25T05:19:07.375Z,6.56
2022-12-25T05:20:10.051Z,6.59
2022-12-25T05:21:12.826Z,6.60
2022-12-25T05:22:15.427Z,6.62
2022-12-25T05:23:17.971Z,6.64
2022-12-25T05:24:21.101Z,6.64
2022-12-25T05:25:23.616Z,6.60
2022-12-25T05:26:26.855Z,6.69
2022-12-25T05:27:29.500Z,6.61
2022-12-25T05:28:32.138Z,6.63
2022-12-25T05:29:34.659Z,6.60
2022-12-25T05:30:37.449Z,6.62
2022-12-25T05:31:39.999Z,6.63
2022-12-25T05:32:42.680Z,6.62
2022-12-25T05:33:45.339Z,6.64
2022-12-25T05:34:47.859Z,6.64
2022-12-25T05:35:50.511Z,6.63
2022-12-25T05:36:53.260Z,6.60
2022-12-25T05:37:55.899Z,6.64
2022-12-25T05:38:58.430Z,6.62
2022-12-25T05:40:01.066Z,6.62
2022-12-25T05:41:03.955Z,6.63
2022-12-25T05:42:06.464Z,6.63
2022-12-25T05:43:09.478Z,6.67
2022-12-25T05:44:12.107Z,6.73
2022-12-25T05:45:14.631Z,6.73
2022-12-25T05:46:18.049Z,6.71
2022-12-25T05:47:20.629Z,6.77
2022-12-25T05:48:23.389Z,6.76
2022-12-25T05:49:25.913Z,6.77
2022-12-25T05:50:28.430Z,6.79
2022-12-25T05:51:39.471Z,6.78
2022-12-25T05:52:41.997Z,6.79
2022-12-25T05:53:44.630Z,6.77
2022-12-25T05:54:47.153Z,6.80
2022-12-25T05:55:49.678Z,6.81
2022-12-25T05:56:52.323Z,6.82
2022-12-25T05:57:54.727Z,6.80
2022-12-25T05:58:57.359Z,6.77
2022-12-25T06:00:00.001Z,6.81
2022-12-25T06:01:03.264Z,6.83
2022-12-25T06:02:06.116Z,6.88
2022-12-25T06:03:08.924Z,6.92
2022-12-25T06:04:13.002Z,6.94
2022-12-25T06:05:15.850Z,6.96
2022-12-25T06:06:18.744Z,6.95
2022-12-25T06:07:21.252Z,6.95
2022-12-25T06:08:23.791Z,6.97
2022-12-25T06:09:26.416Z,6.94
2022-12-25T06:10:28.940Z,6.94
2022-12-25T06:11:31.595Z,6.96
2022-12-25T06:12:34.582Z,6.98
2022-12-25T06:13:37.593Z,6.95
2022-12-25T06:14:40.345Z,6.94
2022-12-25T06:15:43.353Z,6.98
2022-12-25T06:16:46.056Z,6.96
2022-12-25T06:17:48.991Z,6.96
2022-12-25T06:18:52.371Z,6.95
2022-12-25T06:19:55.616Z,6.96
2022-12-25T06:20:58.598Z,7.00
2022-12-25T06:22:01.609Z,6.96
2022-12-25T06:23:04.841Z,6.99
2022-12-25T06:24:08.042Z,6.96
2022-12-25T06:25:11.203Z,6.95
2022-12-25T06:26:17.928Z,6.98
2022-12-25T06:27:21.046Z,7.00
2022-12-25T06:28:24.169Z,7.01
2022-12-25T06:29:27.294Z,6.99
2022-12-25T06:30:30.411Z,7.03
2022-12-25T06:31:33.669Z,6.99
2022-12-25T06:32:37.135Z,7.01
2022-12-25T06:33:40.261Z,7.05
2022-12-25T06:34:43.376Z,7.02
2022-12-25T06:35:46.509Z,7.07
2022-12-25T06:36:49.860Z,7.04
2022-12-25T06:37:52.986Z,7.05
2022-12-25T06:38:57.069Z,7.08
2022-12-25T06:40:00.184Z,7.05
2022-12-25T06:41:05.841Z,7.07
2022-12-25T06:42:09.549Z,7.06
2022-12-25T06:43:12.670Z,7.01
2022-12-25T06:44:15.923Z,7.05
2022-12-25T06:45:19.034Z,7.05
2022-12-25T06:46:24.296Z,7.09
2022-12-25T06:47:27.559Z,7.11
2022-12-25T06:48:30.804Z,7.13
2022-12-25T06:49:34.054Z,7.15
2022-12-25T06:50:37.641Z,7.19
2022-12-25T06:51:40.888Z,7.19
2022-12-25T06:52:44.142Z,7.19
2022-12-25T06:53:51.088Z,7.25
2022-12-25T06:54:54.208Z,7.18
2022-12-25T06:56:16.340Z,7.25
2022-12-25T06:57:19.534Z,7.30
2022-12-25T06:58:22.897Z,7.31
2022-12-25T06:59:25.668Z,7.29
2022-12-25T07:00:28.297Z,7.29
2022-12-25T07:01:37.037Z,7.34
2022-12-25T07:02:48.883Z,7.30
2022-12-25T07:03:57.953Z,7.26
2022-12-25T07:05:01.674Z,7.25
2022-12-25T07:06:04.356Z,7.33
2022-12-25T07:07:09.503Z,7.37
2022-12-25T07:08:12.518Z,7.37
2022-12-25T07:09:15.163Z,7.39
2022-12-25T07:10:17.803Z,7.35
2022-12-25T07:11:20.686Z,7.42
2022-12-25T07:12:24.488Z,7.46
2022-12-25T07:13:27.043Z,7.44
2022-12-25T07:14:29.567Z,7.42
2022-12-25T07:15:32.113Z,7.46
2022-12-25T07:16:34.695Z,7.43
2022-12-25T07:17:37.378Z,7.47
2022-12-25T07:18:40.524Z,7.47
2022-12-25T07:19:45.285Z,7.50
2022-12-25T07:20:48.150Z,7.56
2022-12-25T07:21:50.774Z,7.52
2022-12-25T07:22:53.328Z,7.53
2022-12-25T07:23:56.103Z,7.56
2022-12-25T07:24:58.615Z,7.54
2022-12-25T07:26:02.090Z,7.63
2022-12-25T07:27:04.623Z,7.60
2022-12-25T07:28:07.133Z,7.60
2022-12-25T07:29:09.655Z,7.63
2022-12-25T07:30:13.021Z,7.68
2022-12-25T07:31:17.900Z,7.71
2022-12-25T07:32:20.579Z,7.64
2022-12-25T07:33:23.095Z,7.72
2022-12-25T07:34:25.738Z,7.77
2022-12-25T07:35:28.259Z,7.75
2022-12-25T07:36:30.901Z,7.75
2022-12-25T07:37:33.542Z,7.71
2022-12-25T07:38:36.196Z,7.77
2022-12-25T07:39:38.703Z,7.79
2022-12-25T07:40:45.665Z,7.82
2022-12-25T07:41:48.325Z,7.79
2022-12-25T07:42:50.944Z,7.83
2022-12-25T07:43:54.189Z,7.90
2022-12-25T07:44:56.703Z,7.87
2022-12-25T07:46:00.639Z,7.94
2022-12-25T07:47:03.192Z,7.87
2022-12-25T07:48:08.467Z,7.91
2022-12-25T07:49:14.469Z,7.89
2022-12-25T07:50:17.346Z,7.95
2022-12-25T07:51:20.228Z,7.95
2022-12-25T07:52:22.997Z,7.96
2022-12-25T07:53:26.253Z,7.94
2022-12-25T07:54:28.775Z,7.97
2022-12-25T07:55:31.274Z,7.97
2022-12-25T07:56:33.913Z,7.95
2022-12-25T07:57:36.803Z,7.96
2022-12-25T07:58:40.277Z,7.96
2022-12-25T07:59:42.806Z,7.95
2022-12-25T08:00:45.347Z,7.98
2022-12-25T08:01:50.680Z,8.08
2022-12-25T08:02:53.531Z,8.05
2022-12-25T08:03:58.395Z,8.04
2022-12-25T08:05:00.927Z,8.09
2022-12-25T08:06:06.689Z,8.12
2022-12-25T08:07:09.213Z,8.08
2022-12-25T08:08:11.732Z,8.09
2022-12-25T08:09:14.273Z,8.08
2022-12-25T08:10:16.892Z,8.13
2022-12-25T08:11:19.417Z,8.10
2022-12-25T08:12:22.059Z,8.09
2022-12-25T08:13:24.602Z,8.12
2022-12-25T08:14:27.219Z,8.12
2022-12-25T08:15:30.820Z,8.15
2022-12-25T08:16:33.989Z,8.17
2022-12-25T08:17:36.824Z,8.17
2022-12-25T08:18:40.062Z,8.18
2022-12-25T08:19:42.952Z,8.20
2022-12-25T08:20:45.621Z,8.20
2022-12-25T08:21:48.362Z,8.20
2022-12-25T08:22:50.999Z,8.24
2022-12-25T08:23:53.873Z,8.27
2022-12-25T08:24:56.880Z,8.25
2022-12-25T08:26:05.577Z,8.32
2022-12-25T08:27:08.880Z,8.36
2022-12-25T08:28:12.004Z,8.35
2022-12-25T08:29:15.601Z,8.40
2022-12-25T08:30:18.724Z,8.42
2022-12-25T08:31:25.046Z,8.49
2022-12-25T08:32:28.213Z,8.36
2022-12-25T08:33:31.342Z,8.41
2022-12-25T08:34:34.453Z,8.43
2022-12-25T08:35:37.695Z,8.40
2022-12-25T08:36:41.896Z,8.42
2022-12-25T08:37:45.140Z,8.40
2022-12-25T08:38:48.743Z,8.44
2022-12-25T08:39:52.099Z,8.39
2022-12-25T08:40:55.346Z,8.42
2022-12-25T08:41:58.583Z,8.45
2022-12-25T08:43:01.710Z,8.46
2022-12-25T08:44:06.156Z,8.46
2022-12-25T08:45:09.993Z,8.46
2022-12-25T08:46:13.428Z,8.42
2022-12-25T08:47:16.597Z,8.38
2022-12-25T08:48:19.837Z,8.45
2022-12-25T08:49:23.082Z,8.44
2022-12-25T08:50:26.929Z,8.47
2022-12-25T08:51:30.160Z,8.39
2022-12-25T08:52:33.401Z,8.42
2022-12-25T08:53:36.647Z,8.43
2022-12-25T08:54:39.764Z,8.45
2022-12-25T08:55:43.365Z,8.38
2022-12-25T08:56:46.488Z,8.43
2022-12-25T08:57:52.729Z,8.48
2022-12-25T08:58:55.851Z,8.52
2022-12-25T08:59:58.894Z,8.53
2022-12-25T09:01:02.023Z,8.47
2022-12-25T09:02:05.381Z,8.52
2022-12-25T09:03:08.819Z,8.55
2022-12-25T09:04:11.584Z,8.50
2022-12-25T09:05:14.222Z,8.56
2022-12-25T09:06:17.222Z,8.64
2022-12-25T09:07:19.983Z,8.67
2022-12-25T09:08:22.828Z,8.68
2022-12-25T09:09:28.625Z,8.71
2022-12-25T09:10:31.518Z,8.64
2022-12-25T09:11:34.202Z,8.64
2022-12-25T09:12:36.794Z,8.62
2022-12-25T09:13:40.035Z,8.66
2022-12-25T09:14:42.970Z,8.68
2022-12-25T09:15:45.646Z,8.65
2022-12-25T09:16:50.407Z,8.69
2022-12-25T09:17:52.926Z,8.64
2022-12-25T09:18:58.470Z,8.69
2022-12-25T09:20:01.171Z,8.64
2022-12-25T09:21:06.486Z,8.59
2022-12-25T09:22:10.327Z,8.57
2022-12-25T09:23:14.366Z,8.50
2022-12-25T09:24:17.049Z,8.52
2022-12-25T09:25:19.574Z,8.51
2022-12-25T09:26:22.058Z,8.52
2022-12-25T09:27:24.613Z,8.52
2022-12-25T09:28:27.220Z,8.51
2022-12-25T09:29:29.620Z,8.44
2022-12-25T09:30:32.272Z,8.57
2022-12-25T09:31:34.933Z,8.47
2022-12-25T09:32:40.448Z,8.50
2022-12-25T09:33:43.101Z,8.42
2022-12-25T09:34:45.737Z,8.42
2022-12-25T09:35:59.546Z,8.47
2022-12-25T09:37:02.301Z,8.44
2022-12-25T09:38:04.915Z,8.46
2022-12-25T09:39:07.584Z,8.41
2022-12-25T09:40:17.540Z,8.57
2022-12-25T09:41:34.823Z,8.47
2022-12-25T09:42:37.341Z,8.49
2022-12-25T09:43:46.706Z,8.49
2022-12-25T09:44:59.193Z,8.53
2022-12-25T09:46:05.830Z,8.49
2022-12-25T09:47:15.269Z,8.54
2022-12-25T09:48:18.628Z,8.45
2022-12-25T09:49:33.628Z,8.49
2022-12-25T09:51:10.228Z,8.50
2022-12-25T09:52:57.770Z,8.56
2022-12-25T09:54:22.605Z,8.51
2022-12-25T09:55:27.036Z,8.48
2022-12-25T09:56:29.670Z,8.45
2022-12-25T09:57:33.513Z,8.50
2022-12-25T09:58:36.156Z,8.46
2022-12-25T09:59:39.165Z,8.47
2022-12-25T10:00:48.642Z,8.51
2022-12-25T10:02:04.853Z,8.47
2022-12-25T10:03:37.277Z,8.57
2022-12-25T10:04:56.678Z,8.58
2022-12-25T10:06:24.524Z,8.59
2022-12-25T10:07:45.763Z,8.63
2022-12-25T10:09:09.417Z,8.58
2022-12-25T10:10:36.651Z,8.63
2022-12-25T10:11:49.137Z,8.62
2022-12-25T10:12:54.656Z,8.59
2022-12-25T10:14:18.187Z,8.61
2022-12-25T10:15:36.703Z,8.60
2022-12-25T10:17:08.101Z,8.64
2022-12-25T10:18:13.627Z,8.60
2022-12-25T10:19:56.225Z,8.61
2022-12-25T10:21:01.756Z,8.59
2022-12-25T10:22:32.235Z,8.63
2022-12-25T10:23:40.147Z,8.64
2022-12-25T10:24:50.829Z,8.72
2022-12-25T10:25:54.312Z,8.70
2022-12-25T10:26:57.451Z,8.67
2022-12-25T10:28:05.846Z,8.71
2022-12-25T10:29:17.477Z,8.75
2022-12-25T10:30:25.305Z,8.76
2022-12-25T10:31:30.907Z,8.79
2022-12-25T10:32:34.524Z,8.80
2022-12-25T10:33:38.006Z,8.83
2022-12-25T10:34:43.894Z,8.85
2022-12-25T10:35:47.011Z,8.85
2022-12-25T10:36:51.327Z,8.87
2022-12-25T10:38:00.578Z,8.86
2022-12-25T10:39:03.956Z,8.81
2022-12-25T10:40:22.179Z,8.83
2022-12-25T10:42:09.109Z,8.90
2022-12-25T10:43:21.938Z,8.87
2022-12-25T10:44:25.663Z,8.85
2022-12-25T10:45:28.787Z,8.86
2022-12-25T10:46:31.962Z,8.83
2022-12-25T10:47:41.436Z,8.85
2022-12-25T10:48:57.722Z,8.93
2022-12-25T10:50:08.755Z,8.89
2022-12-25T10:51:12.233Z,8.86
2022-12-25T10:52:22.441Z,8.88
2022-12-25T10:53:28.683Z,8.84
2022-12-25T10:54:36.130Z,8.86
2022-12-25T10:55:40.203Z,8.79
2022-12-25T10:56:54.250Z,8.84
2022-12-25T10:57:59.032Z,8.84
2022-12-25T10:59:11.529Z,8.86
2022-12-25T11:00:27.855Z,8.90
2022-12-25T11:01:31.164Z,8.86
2022-12-25T11:02:41.237Z,8.92
2022-12-25T11:03:52.773Z,8.89
2022-12-25T11:05:06.384Z,8.95
2022-12-25T11:06:26.429Z,8.98
2022-12-25T11:07:30.258Z,8.96
2022-12-25T11:08:35.194Z,8.89
2022-12-25T11:09:38.183Z,8.90
2022-12-25T11:10:44.552Z,8.95
2022-12-25T11:11:48.388Z,8.94
2022-12-25T11:12:52.231Z,8.96
2022-12-25T11:13:58.107Z,8.96
2022-12-25T11:15:05.485Z,8.98
2022-12-25T11:16:15.858Z,8.96
2022-12-25T11:17:24.037Z,9.05
2022-12-25T11:18:29.079Z,9.04
2022-12-25T11:19:33.211Z,8.95
2022-12-25T11:20:38.410Z,8.93
2022-12-25T11:21:51.812Z,8.91
2022-12-25T11:22:54.953Z,8.93
2022-12-25T11:24:20.806Z,8.98
2022-12-25T11:25:26.090Z,8.94
2022-12-25T11:26:31.654Z,8.99
2022-12-25T11:27:34.173Z,8.95
2022-12-25T11:28:40.532Z,9.02
2022-12-25T11:29:47.733Z,9.05
2022-12-25T11:30:55.482Z,9.14
2022-12-25T11:32:00.575Z,9.11
2022-12-25T11:33:06.844Z,9.14
2022-12-25T11:34:28.905Z,9.18
2022-12-25T11:35:35.620Z,9.18
2022-12-25T11:36:49.656Z,9.24
2022-12-25T11:37:52.989Z,9.25
2022-12-25T11:38:55.902Z,9.30
2022-12-25T11:39:58.667Z,9.33
2022-12-25T11:41:04.672Z,9.39
2022-12-25T11:42:40.062Z,9.44
2022-12-25T11:43:50.383Z,9.39
2022-12-25T11:45:05.270Z,9.40
2022-12-25T11:46:20.313Z,9.40
2022-12-25T11:47:48.859Z,9.46
2022-12-25T11:49:00.608Z,9.49
2022-12-25T11:50:05.635Z,9.42
2022-12-25T11:51:09.831Z,9.46
2022-12-25T11:52:14.513Z,9.47
2022-12-25T11:53:39.976Z,9.55
2022-12-25T11:54:52.677Z,9.39
2022-12-25T11:56:18.235Z,9.47
2022-12-25T11:57:23.514Z,9.48
2022-12-25T11:58:33.475Z,9.50
2022-12-25T11:59:56.054Z,9.53
2022-12-25T12:01:00.958Z,9.48
2022-12-25T12:02:18.428Z,9.53
2022-12-25T12:03:37.591Z,9.49
2022-12-25T12:04:46.681Z,9.55
2022-12-25T12:06:04.691Z,9.57
2022-12-25T12:07:29.182Z,9.59
2022-12-25T12:08:33.720Z,9.54
2022-12-25T12:09:56.045Z,9.57
2022-12-25T12:11:23.165Z,9.58
2022-12-25T12:12:39.680Z,9.58
2022-12-25T12:13:56.287Z,9.61
2022-12-25T12:15:21.614Z,9.63
2022-12-25T12:16:24.337Z,9.61
2022-12-25T12:17:27.010Z,9.56
2022-12-25T12:18:32.418Z,9.63
2022-12-25T12:19:34.953Z,9.49
2022-12-25T12:20:37.948Z,9.59
2022-12-25T12:21:44.247Z,9.56
2022-12-25T12:22:51.504Z,9.64
2022-12-25T12:24:01.949Z,9.65
2022-12-25T12:25:08.312Z,9.73
2022-12-25T12:26:19.469Z,9.66
2022-12-25T12:27:40.487Z,9.73
2022-12-25T12:28:48.276Z,9.71
2022-12-25T12:29:54.767Z,9.65
2022-12-25T12:31:08.344Z,9.66
2022-12-25T12:32:35.690Z,9.64
2022-12-25T12:33:44.321Z,9.61
2022-12-25T12:34:50.701Z,9.59
2022-12-25T12:35:54.066Z,9.57
2022-12-25T12:37:08.206Z,9.65
2022-12-25T12:38:17.567Z,9.55
2022-12-25T12:39:27.529Z,9.55
2022-12-25T12:40:56.570Z,9.57
2022-12-25T12:41:59.955Z,9.50
2022-12-25T12:43:03.655Z,9.52
2022-12-25T12:44:07.993Z,9.51
2022-12-25T12:45:18.191Z,9.52
2022-12-25T12:46:37.188Z,9.55
2022-12-25T12:47:48.070Z,9.58
2022-12-25T12:48:53.824Z,9.47
2022-12-25T12:50:01.986Z,9.68
2022-12-25T12:51:07.150Z,9.55
2022-12-25T12:52:33.079Z,9.55
2022-12-25T12:53:38.837Z,9.50
2022-12-25T12:55:09.315Z,9.53
2022-12-25T12:56:20.719Z,9.50
2022-12-25T12:57:29.860Z,9.49
2022-12-25T12:58:38.632Z,9.50
2022-12-25T12:59:47.365Z,9.48
2022-12-25T13:01:01.464Z,9.53
2022-12-25T13:02:21.501Z,9.53
2022-12-25T13:03:49.528Z,9.49
2022-12-25T13:05:04.174Z,9.53
2022-12-25T13:06:28.293Z,9.56
2022-12-25T13:07:44.219Z,9.46
2022-12-25T13:08:55.666Z,9.45
2022-12-25T13:10:09.961Z,9.47
2022-12-25T13:11:26.630Z,9.46
2022-12-25T13:12:29.626Z,9.40
2022-12-25T13:13:39.844Z,9.42
2022-12-25T13:14:47.638Z,9.45
2022-12-25T13:15:51.883Z,9.38
2022-12-25T13:16:55.065Z,9.40
2022-12-25T13:18:04.081Z,9.46
2022-12-25T13:19:16.624Z,9.44
2022-12-25T13:20:32.518Z,9.39
2022-12-25T13:21:35.930Z,9.37
2022-12-25T13:22:38.569Z,9.36
2022-12-25T13:23:41.217Z,9.29
2022-12-25T13:24:43.804Z,9.30
2022-12-25T13:25:54.626Z,9.29
2022-12-25T13:26:57.414Z,9.22
2022-12-25T13:27:59.933Z,9.25
2022-12-25T13:29:09.497Z,9.22
2022-12-25T13:30:19.044Z,9.22
2022-12-25T13:31:27.950Z,9.16
2022-12-25T13:32:33.377Z,9.14
2022-12-25T13:33:37.462Z,9.10
2022-12-25T13:34:42.432Z,9.07
2022-12-25T13:35:45.540Z,9.06
2022-12-25T13:36:48.982Z,9.07
2022-12-25T13:37:52.378Z,9.05
2022-12-25T13:38:57.635Z,9.07
2022-12-25T13:40:04.139Z,9.11
2022-12-25T13:41:25.380Z,9.02
2022-12-25T13:42:31.265Z,9.05
2022-12-25T13:43:34.024Z,9.04
2022-12-25T13:44:39.535Z,8.98
2022-12-25T13:45:42.087Z,8.97
2022-12-25T13:46:44.678Z,8.98
2022-12-25T13:47:53.106Z,8.97
2022-12-25T13:49:01.643Z,9.01
2022-12-25T13:50:36.804Z,9.00
2022-12-25T13:51:39.312Z,8.90
2022-12-25T13:52:41.954Z,8.84
2022-12-25T13:53:44.708Z,8.84
2022-12-25T13:55:10.512Z,8.92
2022-12-25T13:56:15.794Z,8.82
2022-12-25T13:57:18.688Z,8.78
2022-12-25T13:58:39.793Z,8.86
2022-12-25T13:59:44.481Z,8.81
2022-12-25T14:00:53.312Z,8.80
2022-12-25T14:01:57.831Z,8.74
2022-12-25T14:03:01.176Z,8.72
2022-12-25T14:04:03.918Z,8.77
2022-12-25T14:05:43.336Z,8.83
2022-12-25T14:06:46.400Z,8.72
2022-12-25T14:07:53.619Z,8.75
2022-12-25T14:08:58.647Z,8.71
2022-12-25T14:10:04.169Z,8.74
2022-12-25T14:11:08.250Z,8.70
2022-12-25T14:12:17.368Z,8.69
2022-12-25T14:13:23.745Z,8.76
2022-12-25T14:14:26.483Z,8.63
2022-12-25T14:15:31.772Z,8.64
2022-12-25T14:16:35.131Z,8.63
2022-12-25T14:17:37.669Z,8.59
2022-12-25T14:18:57.452Z,8.72
2022-12-25T14:20:10.029Z,8.65
2022-12-25T14:21:27.814Z,8.72
2022-12-25T14:22:32.261Z,8.64
2022-12-25T14:23:47.861Z,8.65
2022-12-25T14:24:50.621Z,8.57
2022-12-25T14:25:53.381Z,8.56
2022-12-25T14:27:03.595Z,8.59
2022-12-25T14:28:16.555Z,8.63
2022-12-25T14:29:23.674Z,8.66
2022-12-25T14:30:29.807Z,8.60
2022-12-25T14:31:33.957Z,8.58
2022-12-25T14:32:43.559Z,8.59
2022-12-25T14:33:47.394Z,8.57
2022-12-25T14:34:56.528Z,8.64
2022-12-25T14:35:59.523Z,8.60
2022-12-25T14:37:03.612Z,8.64
2022-12-25T14:38:07.209Z,8.63
2022-12-25T14:39:30.248Z,8.69
2022-12-25T14:40:36.439Z,8.67
2022-12-25T14:41:42.295Z,8.64
2022-12-25T14:43:05.291Z,8.65
2022-12-25T14:44:35.055Z,8.66
2022-12-25T14:45:41.228Z,8.60
2022-12-25T14:46:44.421Z,8.61
2022-12-25T14:47:53.057Z,8.68
2022-12-25T14:49:25.235Z,8.60
2022-12-25T14:50:40.222Z,8.61
2022-12-25T14:51:43.834Z,8.53
2022-12-25T14:52:47.020Z,8.55
2022-12-25T14:53:56.318Z,8.57
2022-12-25T14:55:03.398Z,8.59
2022-12-25T14:56:08.792Z,8.58
2022-12-25T14:57:25.354Z,8.61
2022-12-25T14:58:31.840Z,8.58
2022-12-25T14:59:34.971Z,8.52
2022-12-25T15:00:39.885Z,8.58
2022-12-25T15:01:43.692Z,8.53
2022-12-25T15:02:48.614Z,8.55
2022-12-25T15:03:51.962Z,8.52
2022-12-25T15:04:55.248Z,8.51
2022-12-25T15:06:02.004Z,8.58
2022-12-25T15:07:07.783Z,8.57
2022-12-25T15:08:13.493Z,8.52
2022-12-25T15:09:19.145Z,8.57
2022-12-25T15:10:59.095Z,8.50
2022-12-25T15:11:56.341Z,8.55
2022-12-25T15:12:59.583Z,8.51
2022-12-25T15:14:02.706Z,8.43